Time;durP1;ratioP1;P1;durP2;ratioP2;P2;SDS_P1;SDS_P2;PMS_P1;PMS_P2;Temp;Humidity;BMP_temperature;BMP_pressure;BME280_temperature;BME280_humidity;BME280_pressure;Samples;Min_cycle;Max_cycle;Signal;HPM_P1;HPM_P2
2023/01/10 00:02:21;;;;;;;;;;;25.60;97.80;;;;;;5070255;28;19917;-74
2023/01/10 00:04:48;;;;;;;;;;;25.70;97.90;;;;;;5079136;28;19912;-75
2023/01/10 00:07:15;;;;;;;;;;;25.70;97.50;;;;;;5081648;28;19955;-74
2023/01/10 00:09:41;;;;;;;;;;;25.90;97.70;;;;;;5075764;28;19936;-73
2023/01/10 00:14:53;;;;;;;;;;;26.10;97.40;;;;;;5067520;28;20023;-70
2023/01/10 00:17:20;;;;;;;;;;;26.20;97.20;;;;;;5072276;28;20332;-73
2023/01/10 00:19:47;;;;;;;;;;;26.10;96.50;;;;;;5082605;28;20319;-71
2023/01/10 00:22:15;;;;;;;;;;;26.00;96.60;;;;;;5090630;28;19908;-75
2023/01/10 00:24:42;;;;;;;;;;;26.00;96.70;;;;;;5088600;28;19908;-71
2023/01/10 00:27:11;;;;;;;;;;;26.10;96.80;;;;;;5072643;28;19913;-71
2023/01/10 00:29:38;;;;;;;;;;;26.00;96.80;;;;;;5073841;28;19939;-71
2023/01/10 00:32:04;;;;;;;;;;;26.10;97.10;;;;;;5083669;28;19962;-70
2023/01/10 00:34:32;;;;;;;;;;;26.10;97.10;;;;;;5073764;28;20280;-72
2023/01/10 00:36:58;;;;;;;;;;;26.30;97.30;;;;;;5078515;28;20261;-71
2023/01/10 00:39:26;;;;;;;;;;;26.30;97.00;;;;;;5090209;28;19939;-71
2023/01/10 00:44:37;;;;;;;;;;;26.20;96.30;;;;;;5084983;28;19914;-70
2023/01/10 00:47:04;;;;;;;;;;;26.20;96.30;;;;;;5057079;28;20079;-70
2023/01/10 00:49:30;;;;;;;;;;;26.30;96.50;;;;;;5060419;28;19912;-70
2023/01/10 00:51:58;;;;;;;;;;;26.40;96.00;;;;;;5053754;28;20281;-71
2023/01/10 00:54:25;;;;;;;;;;;26.30;95.50;;;;;;5080946;28;20438;-71
2023/01/10 00:56:52;;;;;;;;;;;26.30;95.50;;;;;;5082682;28;19916;-71
2023/01/10 00:59:18;;;;;;;;;;;26.50;95.50;;;;;;5082522;28;20420;-71
2023/01/10 01:01:45;;;;;;;;;;;26.50;95.20;;;;;;5069481;28;19935;-72
2023/01/10 01:04:12;;;;;;;;;;;26.60;96.20;;;;;;5072946;28;19916;-71
2023/01/10 01:06:38;;;;;;;;;;;26.60;96.30;;;;;;5059621;28;19919;-72
2023/01/10 01:09:05;;;;;;;;;;;26.80;96.00;;;;;;5057929;28;19909;-70
2023/01/10 01:11:32;;;;;;;;;;;27.00;95.90;;;;;;5050627;28;19908;-71
2023/01/10 01:13:58;;;;;;;;;;;27.10;95.30;;;;;;5053680;28;19978;-71
2023/01/10 01:16:25;;;;;;;;;;;27.30;94.90;;;;;;5063742;28;19970;-70
2023/01/10 01:18:51;;;;;;;;;;;27.30;94.90;;;;;;5060080;28;19916;-71
2023/01/10 01:21:20;;;;;;;;;;;27.50;94.60;;;;;;5070229;28;19948;-73
2023/01/10 01:23:46;;;;;;;;;;;27.60;95.10;;;;;;5070262;28;20365;-72
2023/01/10 01:26:13;;;;;;;;;;;27.70;95.00;;;;;;5063267;28;19916;-72
2023/01/10 01:28:40;;;;;;;;;;;27.80;94.80;;;;;;5071559;28;20039;-71
2023/01/10 01:31:07;;;;;;;;;;;27.80;94.80;;;;;;5072201;28;19956;-68
2023/01/10 01:33:34;;;;;;;;;;;27.70;94.10;;;;;;5072142;28;20015;-71
2023/01/10 01:36:01;;;;;;;;;;;27.80;94.00;;;;;;5071389;28;19913;-72
2023/01/10 01:38:27;;;;;;;;;;;27.80;94.00;;;;;;5072193;28;19923;-72
2023/01/10 01:40:54;;;;;;;;;;;27.90;94.00;;;;;;5072144;28;19909;-72
2023/01/10 01:43:25;;;;;;;;;;;28.00;93.60;;;;;;5072009;28;19909;-74
2023/01/10 01:45:52;;;;;;;;;;;28.00;93.10;;;;;;5068039;28;19958;-71
2023/01/10 01:48:22;;;;;;;;;;;28.20;93.30;;;;;;5089825;28;19909;-71
2023/01/10 01:51:09;;;;;;;;;;;28.40;93.20;;;;;;5084488;28;19908;-71
2023/01/10 01:53:50;;;;;;;;;;;28.40;93.50;;;;;;5076081;28;20277;-71
2023/01/10 01:56:19;;;;;;;;;;;28.50;93.60;;;;;;5073990;28;19999;-70
2023/01/10 01:58:58;;;;;;;;;;;28.30;93.80;;;;;;5077300;28;19954;-70
2023/01/10 02:01:25;;;;;;;;;;;28.40;93.70;;;;;;5087720;28;19969;-69
2023/01/10 02:04:05;;;;;;;;;;;28.60;94.30;;;;;;5082350;28;19908;-72
2023/01/10 02:06:32;;;;;;;;;;;28.80;93.20;;;;;;5075891;28;19954;-70
2023/01/10 02:09:20;;;;;;;;;;;28.80;93.20;;;;;;5075302;28;20027;-70
2023/01/10 02:11:47;;;;;;;;;;;28.90;93.40;;;;;;5074945;28;19908;-70
2023/01/10 02:14:14;;;;;;;;;;;29.00;93.40;;;;;;5074855;28;19916;-71
2023/01/10 02:16:41;;;;;;;;;;;29.10;93.00;;;;;;5074756;28;19916;-72
2023/01/10 02:19:13;;;;;;;;;;;29.20;92.70;;;;;;5073876;28;19915;-70
2023/01/10 02:21:54;;;;;;;;;;;29.20;91.90;;;;;;5070410;28;19931;-71
2023/01/10 02:24:23;;;;;;;;;;;29.30;91.60;;;;;;5067435;28;19909;-71
2023/01/10 02:27:08;;;;;;;;;;;29.30;92.10;;;;;;5069076;28;19955;-73
2023/01/10 02:29:45;;;;;;;;;;;29.20;91.80;;;;;;5054699;28;19908;-70
2023/01/10 02:32:19;;;;;;;;;;;29.30;91.40;;;;;;5054726;28;19986;-71
2023/01/10 02:34:52;;;;;;;;;;;29.40;91.70;;;;;;5054789;28;19986;-71
2023/01/10 02:37:25;;;;;;;;;;;29.40;91.40;;;;;;5054281;28;19921;-70
2023/01/10 02:39:59;;;;;;;;;;;29.60;91.40;;;;;;5054680;28;20429;-71
2023/01/10 02:42:29;;;;;;;;;;;29.80;91.30;;;;;;5054381;28;19916;-71
2023/01/10 02:45:02;;;;;;;;;;;29.90;90.60;;;;;;5060121;28;19923;-72
2023/01/10 02:47:34;;;;;;;;;;;29.90;90.40;;;;;;5054039;28;19916;-72
2023/01/10 02:50:20;;;;;;;;;;;29.90;90.10;;;;;;5054267;28;19915;-72
2023/01/10 02:52:47;;;;;;;;;;;30.00;89.70;;;;;;5054081;28;19909;-71
2023/01/10 02:55:14;;;;;;;;;;;30.10;88.80;;;;;;5054233;28;19909;-69
2023/01/10 02:58:02;;;;;;;;;;;30.00;89.60;;;;;;5054003;28;19909;-72
2023/01/10 03:00:28;;;;;;;;;;;29.60;89.00;;;;;;5054166;28;19909;-69
2023/01/10 03:03:13;;;;;;;;;;;29.60;89.50;;;;;;5054332;28;19932;-73
2023/01/10 03:05:42;;;;;;;;;;;29.60;90.10;;;;;;5053974;28;20484;-72
2023/01/10 03:08:09;;;;;;;;;;;30.00;88.30;;;;;;5053974;28;19975;-72
2023/01/10 03:10:44;;;;;;;;;;;30.30;86.90;;;;;;5054135;28;19948;-71
2023/01/10 03:13:14;;;;;;;;;;;30.80;86.50;;;;;;5054127;28;19917;-71
2023/01/10 03:15:44;;;;;;;;;;;31.20;85.30;;;;;;5054355;28;20370;-71
2023/01/10 03:18:15;;;;;;;;;;;31.50;83.80;;;;;;5061383;28;19913;-70
2023/01/10 03:20:44;;;;;;;;;;;32.10;83.40;;;;;;5066658;28;19954;-71
2023/01/10 03:23:12;;;;;;;;;;;32.50;82.30;;;;;;5073893;28;20253;-72
2023/01/10 03:25:39;;;;;;;;;;;33.20;80.10;;;;;;5074627;28;19962;-71
2023/01/10 03:28:06;;;;;;;;;;;33.80;77.50;;;;;;5074246;28;19940;-71
2023/01/10 03:30:35;;;;;;;;;;;34.30;75.90;;;;;;5073671;28;19908;-71
2023/01/10 03:33:02;;;;;;;;;;;34.60;75.40;;;;;;5073629;28;19916;-72
2023/01/10 03:35:47;;;;;;;;;;;34.90;73.90;;;;;;5073641;28;20341;-71
2023/01/10 03:38:27;;;;;;;;;;;35.20;72.70;;;;;;5073512;28;19920;-71
2023/01/10 03:41:01;;;;;;;;;;;36.00;71.10;;;;;;5073577;28;19909;-70
2023/01/10 03:46:43;;;;;;;;;;;36.00;70.20;;;;;;5073390;28;19915;-72
2023/01/10 03:49:11;;;;;;;;;;;36.50;69.00;;;;;;5073391;28;19915;-72
2023/01/10 03:51:38;;;;;;;;;;;36.50;68.30;;;;;;5073281;28;20391;-71
2023/01/10 03:54:05;;;;;;;;;;;36.40;68.90;;;;;;5069499;28;19924;-71
2023/01/10 03:56:42;;;;;;;;;;;36.70;67.30;;;;;;5062188;28;19952;-71
2023/01/10 03:59:09;;;;;;;;;;;36.90;66.50;;;;;;5073336;28;20405;-71
2023/01/10 04:01:35;;;;;;;;;;;37.10;66.30;;;;;;5073478;28;19951;-72
2023/01/10 04:04:03;;;;;;;;;;;37.60;65.50;;;;;;5067012;28;19934;-71
2023/01/10 04:06:30;;;;;;;;;;;38.10;64.50;;;;;;5072660;28;19912;-70
2023/01/10 04:08:56;;;;;;;;;;;37.90;63.70;;;;;;5062420;28;19919;-71
2023/01/10 04:11:23;;;;;;;;;;;37.60;64.70;;;;;;5072604;28;19913;-72
2023/01/10 04:13:49;;;;;;;;;;;37.90;63.30;;;;;;5073045;28;19916;-72
2023/01/10 04:16:16;;;;;;;;;;;38.70;62.80;;;;;;5072883;28;20361;-72
2023/01/10 04:18:43;;;;;;;;;;;38.80;60.90;;;;;;5073042;28;19912;-75
2023/01/10 04:21:09;;;;;;;;;;;39.10;61.30;;;;;;5073433;28;19908;-74
2023/01/10 04:23:36;;;;;;;;;;;38.90;60.90;;;;;;5073112;28;19909;-71
2023/01/10 04:26:03;;;;;;;;;;;38.70;61.70;;;;;;5071582;28;19915;-73
2023/01/10 04:28:29;;;;;;;;;;;38.80;61.50;;;;;;5063240;28;19979;-72
2023/01/10 04:30:57;;;;;;;;;;;38.10;62.40;;;;;;5073322;28;19938;-73
2023/01/10 04:33:24;;;;;;;;;;;37.30;63.20;;;;;;5090031;28;20007;-72
2023/01/10 04:35:51;;;;;;;;;;;36.80;63.80;;;;;;5065001;28;19968;-71
2023/01/10 04:38:18;;;;;;;;;;;36.70;64.40;;;;;;5052579;28;19909;-75
2023/01/10 04:40:51;;;;;;;;;;;36.90;64.10;;;;;;5057026;28;19940;-73
2023/01/10 04:43:17;;;;;;;;;;;37.20;64.90;;;;;;5053048;28;19916;-73
2023/01/10 04:45:44;;;;;;;;;;;37.60;63.60;;;;;;5052443;28;20307;-74
2023/01/10 04:48:11;;;;;;;;;;;37.00;64.50;;;;;;5052289;28;19905;-74
2023/01/10 04:50:37;;;;;;;;;;;37.20;63.70;;;;;;5052616;28;19916;-75
2023/01/10 04:53:04;;;;;;;;;;;37.70;63.00;;;;;;5069213;28;19908;-72
2023/01/10 04:55:34;;;;;;;;;;;38.10;63.00;;;;;;5093459;28;20376;-75
2023/01/10 04:58:01;;;;;;;;;;;38.80;61.90;;;;;;5062406;28;20388;-72
2023/01/10 05:00:28;;;;;;;;;;;38.50;61.60;;;;;;5076763;28;19912;-71
2023/01/10 05:02:55;;;;;;;;;;;37.50;63.50;;;;;;5072767;28;19999;-73
2023/01/10 05:05:21;;;;;;;;;;;37.60;62.80;;;;;;5071543;28;19912;-74
2023/01/10 05:07:48;;;;;;;;;;;37.70;62.30;;;;;;5071511;28;19947;-74
2023/01/10 05:10:15;;;;;;;;;;;37.90;62.20;;;;;;5070644;28;19908;-73
2023/01/10 05:12:42;;;;;;;;;;;38.00;62.30;;;;;;5070581;28;19981;-74
2023/01/10 05:15:08;;;;;;;;;;;37.80;62.70;;;;;;5070524;28;19917;-73
2023/01/10 05:17:35;;;;;;;;;;;38.60;61.50;;;;;;5066141;28;19989;-73
2023/01/10 05:20:02;;;;;;;;;;;38.70;61.50;;;;;;5070358;28;19974;-73
2023/01/10 05:22:28;;;;;;;;;;;38.70;61.60;;;;;;5071456;28;20038;-72
2023/01/10 05:24:55;;;;;;;;;;;38.90;61.70;;;;;;5087793;28;20288;-76
2023/01/10 05:27:22;;;;;;;;;;;39.00;61.90;;;;;;5074021;28;19917;-75
2023/01/10 05:29:48;;;;;;;;;;;39.20;60.20;;;;;;5061658;28;20174;-73
2023/01/10 05:32:15;;;;;;;;;;;39.30;60.30;;;;;;5086138;28;20409;-74
2023/01/10 05:34:42;;;;;;;;;;;38.70;60.70;;;;;;5071559;28;19927;-71
2023/01/10 05:37:08;;;;;;;;;;;38.70;61.00;;;;;;5060767;28;20368;-76
2023/01/10 05:39:35;;;;;;;;;;;38.20;61.10;;;;;;5085371;28;19917;-76
2023/01/10 05:42:04;;;;;;;;;;;37.90;61.60;;;;;;5090170;28;19934;-72
2023/01/10 05:44:31;;;;;;;;;;;37.40;62.30;;;;;;5069774;28;19919;-75
2023/01/10 05:46:57;;;;;;;;;;;36.70;62.80;;;;;;5076525;28;19959;-74
2023/01/10 05:49:24;;;;;;;;;;;36.40;63.90;;;;;;5089870;28;19916;-74
2023/01/10 05:51:51;;;;;;;;;;;36.40;63.40;;;;;;5062712;28;19915;-75
2023/01/10 05:54:17;;;;;;;;;;;36.50;63.70;;;;;;5054600;28;19928;-76
2023/01/10 05:56:44;;;;;;;;;;;36.40;62.70;;;;;;5060997;28;19920;-73
2023/01/10 05:59:10;;;;;;;;;;;35.90;63.90;;;;;;5066607;28;19920;-74
2023/01/10 06:01:37;;;;;;;;;;;35.30;64.50;;;;;;5067355;28;20284;-74
2023/01/10 06:04:04;;;;;;;;;;;35.00;65.40;;;;;;5077260;28;19967;-73
2023/01/10 06:06:31;;;;;;;;;;;34.50;65.40;;;;;;5064488;28;19913;-74
2023/01/10 06:08:58;;;;;;;;;;;33.40;67.20;;;;;;5058551;28;20280;-74
2023/01/10 06:11:28;;;;;;;;;;;32.80;67.70;;;;;;5054860;28;19913;-72
2023/01/10 06:13:58;;;;;;;;;;;32.30;68.20;;;;;;5052620;28;19917;-72
2023/01/10 06:16:24;;;;;;;;;;;31.40;71.20;;;;;;5064294;28;19935;-71
2023/01/10 06:18:51;;;;;;;;;;;31.00;71.00;;;;;;5075405;28;20003;-74
2023/01/10 06:21:18;;;;;;;;;;;30.50;72.30;;;;;;5073259;28;19962;-73
2023/01/10 06:23:44;;;;;;;;;;;30.40;73.10;;;;;;5055854;28;20289;-72
2023/01/10 06:26:11;;;;;;;;;;;29.90;73.80;;;;;;5056605;28;20304;-73
2023/01/10 06:28:39;;;;;;;;;;;29.80;74.40;;;;;;5057347;28;19935;-73
2023/01/10 06:31:09;;;;;;;;;;;29.80;75.30;;;;;;5054854;28;21374;-72
2023/01/10 06:33:37;;;;;;;;;;;29.80;75.70;;;;;;5054242;28;19920;-74
2023/01/10 06:36:04;;;;;;;;;;;29.70;75.90;;;;;;5074750;28;19958;-71
2023/01/10 06:38:31;;;;;;;;;;;29.60;76.20;;;;;;5054414;28;19964;-72
2023/01/10 06:40:57;;;;;;;;;;;29.60;76.50;;;;;;5054893;28;20332;-71
2023/01/10 06:43:24;;;;;;;;;;;29.80;76.10;;;;;;5054670;28;19916;-71
2023/01/10 06:45:51;;;;;;;;;;;30.00;75.70;;;;;;5054417;28;19916;-73
2023/01/10 06:48:17;;;;;;;;;;;30.10;75.80;;;;;;5054664;28;19909;-72
2023/01/10 06:50:44;;;;;;;;;;;29.90;75.90;;;;;;5052980;28;20393;-74
2023/01/10 06:53:10;;;;;;;;;;;29.80;75.60;;;;;;5054775;28;20399;-74
2023/01/10 06:55:37;;;;;;;;;;;29.50;75.80;;;;;;5054587;28;19913;-74
2023/01/10 06:58:04;;;;;;;;;;;29.50;76.10;;;;;;5054451;28;19962;-74
2023/01/10 07:00:31;;;;;;;;;;;29.10;75.90;;;;;;5054318;28;19913;-71
2023/01/10 07:02:58;;;;;;;;;;;29.00;76.80;;;;;;5053309;28;19943;-75
2023/01/10 07:05:25;;;;;;;;;;;28.90;76.20;;;;;;5054552;28;19917;-74
2023/01/10 07:07:51;;;;;;;;;;;28.70;76.60;;;;;;5062596;28;20311;-72
2023/01/10 07:10:18;;;;;;;;;;;28.70;76.80;;;;;;5085426;28;19908;-72
2023/01/10 07:12:45;;;;;;;;;;;28.60;77.20;;;;;;5078174;28;19912;-71
2023/01/10 07:15:11;;;;;;;;;;;28.20;77.70;;;;;;5090274;28;19969;-71
2023/01/10 07:17:38;;;;;;;;;;;28.20;79.00;;;;;;5079420;28;19943;-69
2023/01/10 07:20:05;;;;;;;;;;;28.10;78.50;;;;;;5083799;28;20315;-73
2023/01/10 07:22:32;;;;;;;;;;;28.20;78.80;;;;;;5086746;28;19915;-72
2023/01/10 07:24:58;;;;;;;;;;;28.40;78.80;;;;;;5076801;28;19916;-70
2023/01/10 07:27:25;;;;;;;;;;;28.50;78.30;;;;;;5089156;28;19965;-74
2023/01/10 07:29:51;;;;;;;;;;;28.60;77.90;;;;;;5081169;28;20049;-75
2023/01/10 07:32:18;;;;;;;;;;;28.50;78.50;;;;;;5081415;28;20365;-74
2023/01/10 07:34:45;;;;;;;;;;;28.20;78.80;;;;;;5076845;28;19923;-71
2023/01/10 07:37:11;;;;;;;;;;;28.00;80.10;;;;;;5072186;28;20003;-73
2023/01/10 07:39:38;;;;;;;;;;;28.10;79.90;;;;;;5073675;28;19909;-72
2023/01/10 07:42:05;;;;;;;;;;;28.00;79.80;;;;;;5073419;28;19916;-70
2023/01/10 07:44:31;;;;;;;;;;;27.80;80.80;;;;;;5072727;28;19908;-71
2023/01/10 07:46:58;;;;;;;;;;;27.40;81.90;;;;;;5073312;28;19909;-71
2023/01/10 07:49:25;;;;;;;;;;;27.40;81.60;;;;;;5068297;28;20370;-72
2023/01/10 07:51:51;;;;;;;;;;;27.30;81.60;;;;;;5061546;28;19909;-70
2023/01/10 07:54:18;;;;;;;;;;;27.30;81.40;;;;;;5076857;28;20283;-70
2023/01/10 07:56:46;;;;;;;;;;;27.00;80.90;;;;;;5073055;28;19909;-71
2023/01/10 07:59:15;;;;;;;;;;;27.00;81.20;;;;;;5073083;28;20397;-70
2023/01/10 08:01:42;;;;;;;;;;;26.80;82.10;;;;;;5072192;28;19916;-71
2023/01/10 08:04:09;;;;;;;;;;;26.60;83.40;;;;;;5073254;28;19908;-70
2023/01/10 08:06:35;;;;;;;;;;;26.50;84.80;;;;;;5071579;28;19909;-71
2023/01/10 08:09:04;;;;;;;;;;;26.40;85.20;;;;;;5073260;28;20011;-71
2023/01/10 08:11:30;;;;;;;;;;;26.30;85.90;;;;;;5067055;28;20436;-71
2023/01/10 08:13:57;;;;;;;;;;;26.30;85.50;;;;;;5053480;28;19970;-70
2023/01/10 08:16:23;;;;;;;;;;;26.40;85.50;;;;;;5052902;28;20017;-71
2023/01/10 08:18:50;;;;;;;;;;;26.30;85.90;;;;;;5053168;28;19960;-71
2023/01/10 08:21:17;;;;;;;;;;;26.30;85.50;;;;;;5063671;28;20042;-72
2023/01/10 08:23:44;;;;;;;;;;;26.20;85.30;;;;;;5065105;28;19908;-72
2023/01/10 08:26:10;;;;;;;;;;;25.80;86.20;;;;;;5071761;28;19908;-72
2023/01/10 08:28:37;;;;;;;;;;;25.50;87.10;;;;;;5078514;28;19917;-71
2023/01/10 08:31:07;;;;;;;;;;;25.40;87.50;;;;;;5071549;28;19916;-71
2023/01/10 08:33:36;;;;;;;;;;;25.40;87.20;;;;;;5075149;28;20012;-71
2023/01/10 08:36:03;;;;;;;;;;;25.30;88.40;;;;;;5062495;28;19943;-71
2023/01/10 08:38:29;;;;;;;;;;;25.30;88.30;;;;;;5055964;28;19925;-71
2023/01/10 08:40:59;;;;;;;;;;;25.10;87.80;;;;;;5072596;28;19966;-70
2023/01/10 08:43:26;;;;;;;;;;;25.00;88.40;;;;;;5056039;28;19916;-71
2023/01/10 08:45:52;;;;;;;;;;;24.90;88.90;;;;;;5053162;28;19960;-71
2023/01/10 08:48:19;;;;;;;;;;;24.90;89.20;;;;;;5064400;28;19958;-70
2023/01/10 08:50:46;;;;;;;;;;;24.60;89.70;;;;;;5057042;28;19913;-71
2023/01/10 08:53:12;;;;;;;;;;;24.60;90.20;;;;;;5068412;28;20011;-71
2023/01/10 08:55:39;;;;;;;;;;;24.60;90.30;;;;;;5054062;28;20310;-70
2023/01/10 08:58:05;;;;;;;;;;;24.60;90.50;;;;;;5056298;28;19917;-70
2023/01/10 09:00:32;;;;;;;;;;;24.60;90.50;;;;;;5054611;28;20000;-71
2023/01/10 09:02:59;;;;;;;;;;;24.60;90.60;;;;;;5058548;28;19948;-71
2023/01/10 09:05:25;;;;;;;;;;;24.50;90.40;;;;;;5056210;28;20062;-71
2023/01/10 09:07:53;;;;;;;;;;;24.60;90.50;;;;;;5065105;28;19943;-71
2023/01/10 09:10:20;;;;;;;;;;;24.60;90.40;;;;;;5056362;28;20373;-72
2023/01/10 09:12:56;;;;;;;;;;;24.60;90.50;;;;;;5054878;28;19961;-72
2023/01/10 09:15:23;;;;;;;;;;;24.50;90.80;;;;;;5065017;28;19971;-73
2023/01/10 09:17:52;;;;;;;;;;;24.50;91.60;;;;;;5062200;28;19920;-75
2023/01/10 09:20:19;;;;;;;;;;;24.50;91.50;;;;;;5055271;28;19917;-72
2023/01/10 09:22:46;;;;;;;;;;;24.50;91.80;;;;;;5056437;28;20677;-74
2023/01/10 09:25:12;;;;;;;;;;;24.40;91.90;;;;;;5075092;28;19912;-71
2023/01/10 09:27:39;;;;;;;;;;;24.40;92.40;;;;;;5061915;28;19915;-71
2023/01/10 09:30:06;;;;;;;;;;;24.40;92.10;;;;;;5058192;28;20370;-71
2023/01/10 09:32:32;;;;;;;;;;;24.30;91.90;;;;;;5063668;28;19909;-70
2023/01/10 09:34:59;;;;;;;;;;;24.20;92.10;;;;;;5059748;28;20001;-71
2023/01/10 09:37:26;;;;;;;;;;;24.10;92.20;;;;;;5056057;28;19927;-72
2023/01/10 09:39:54;;;;;;;;;;;24.00;92.20;;;;;;5055918;28;19913;-75
2023/01/10 09:42:20;;;;;;;;;;;24.00;92.70;;;;;;5054647;28;20015;-73
2023/01/10 09:44:47;;;;;;;;;;;23.90;92.50;;;;;;5055875;28;19962;-71
2023/01/10 09:47:36;;;;;;;;;;;23.90;92.70;;;;;;5055448;28;19932;-72
2023/01/10 09:50:14;;;;;;;;;;;23.90;92.50;;;;;;5049663;28;20350;-72
2023/01/10 09:52:43;;;;;;;;;;;23.90;92.80;;;;;;5055687;28;20268;-69
2023/01/10 09:55:17;;;;;;;;;;;23.80;92.50;;;;;;5054362;28;19929;-71
2023/01/10 09:57:44;;;;;;;;;;;23.80;92.60;;;;;;5055010;28;19965;-71
2023/01/10 10:00:21;;;;;;;;;;;23.70;92.60;;;;;;5060586;28;20003;-71
2023/01/10 10:02:51;;;;;;;;;;;23.70;92.70;;;;;;5062502;28;20035;-69
2023/01/10 10:05:19;;;;;;;;;;;23.70;92.80;;;;;;5055393;28;20378;-71
2023/01/10 10:07:50;;;;;;;;;;;23.70;92.90;;;;;;5072884;28;20004;-71
2023/01/10 10:10:21;;;;;;;;;;;23.60;93.20;;;;;;5075446;28;19908;-71
2023/01/10 10:12:59;;;;;;;;;;;23.60;93.20;;;;;;5072121;28;19931;-70
2023/01/10 10:15:26;;;;;;;;;;;23.60;93.20;;;;;;5054936;28;19943;-71
2023/01/10 10:17:52;;;;;;;;;;;23.60;93.40;;;;;;5061527;28;19913;-71
2023/01/10 10:20:19;;;;;;;;;;;23.60;93.60;;;;;;5055187;28;19913;-70
2023/01/10 10:22:51;;;;;;;;;;;23.60;93.90;;;;;;5055176;28;19909;-71
2023/01/10 10:25:42;;;;;;;;;;;23.60;93.70;;;;;;5065041;28;20380;-71
2023/01/10 10:28:34;;;;;;;;;;;23.60;93.80;;;;;;5073518;28;19960;-72
2023/01/10 10:31:04;;;;;;;;;;;23.50;93.80;;;;;;5054880;28;19916;-70
2023/01/10 10:33:49;;;;;;;;;;;23.50;93.80;;;;;;5054941;28;19943;-70
2023/01/10 10:36:54;;;;;;;;;;;23.50;93.60;;;;;;5053122;28;20328;-71
2023/01/10 10:39:23;;;;;;;;;;;23.40;93.60;;;;;;5085727;28;19912;-71
2023/01/10 10:41:52;;;;;;;;;;;23.40;93.60;;;;;;5075659;28;20398;-71
2023/01/10 10:44:28;;;;;;;;;;;23.40;93.70;;;;;;5072946;28;19909;-70
2023/01/10 10:46:57;;;;;;;;;;;23.40;93.80;;;;;;5054637;28;19916;-70
2023/01/10 10:49:49;;;;;;;;;;;23.40;93.70;;;;;;5054501;28;19978;-70
2023/01/10 10:52:26;;;;;;;;;;;23.40;93.80;;;;;;5054281;28;19909;-70
2023/01/10 10:54:53;;;;;;;;;;;23.30;94.00;;;;;;5054479;28;20439;-69
2023/01/10 10:57:23;;;;;;;;;;;23.30;94.20;;;;;;5054442;28;19988;-71
2023/01/10 10:59:49;;;;;;;;;;;23.30;94.20;;;;;;5054545;28;19963;-71
2023/01/10 11:02:21;;;;;;;;;;;23.30;94.20;;;;;;5053115;28;19909;-70
2023/01/10 11:04:50;;;;;;;;;;;23.40;94.20;;;;;;5054382;28;19916;-71
2023/01/10 11:07:17;;;;;;;;;;;23.40;93.90;;;;;;5053974;28;19909;-71
2023/01/10 11:12:14;;;;;;;;;;;23.40;93.70;;;;;;5054175;28;19909;-74
2023/01/10 11:14:41;;;;;;;;;;;23.50;94.10;;;;;;5053948;28;20311;-73
2023/01/10 11:17:27;;;;;;;;;;;23.50;94.00;;;;;;5053718;28;19944;-73
2023/01/10 11:19:56;;;;;;;;;;;23.50;94.00;;;;;;5053943;28;19909;-75
2023/01/10 11:22:23;;;;;;;;;;;23.50;94.00;;;;;;5052617;28;19913;-71
2023/01/10 11:24:55;;;;;;;;;;;23.50;93.90;;;;;;5053733;28;19952;-71
2023/01/10 11:27:29;;;;;;;;;;;23.50;93.90;;;;;;5052488;28;19915;-70
2023/01/10 11:30:22;;;;;;;;;;;23.50;93.70;;;;;;5053816;28;20428;-71
2023/01/10 11:32:57;;;;;;;;;;;23.50;93.80;;;;;;5053497;28;19948;-70
2023/01/10 11:35:32;;;;;;;;;;;23.50;93.70;;;;;;5053645;28;19955;-69
2023/01/10 11:38:18;;;;;;;;;;;23.60;93.80;;;;;;5053485;28;19920;-72
2023/01/10 11:41:02;;;;;;;;;;;23.50;93.80;;;;;;5053318;28;20031;-70
2023/01/10 11:43:32;;;;;;;;;;;23.40;93.80;;;;;;5053374;28;19909;-71
2023/01/10 11:46:01;;;;;;;;;;;23.30;94.40;;;;;;5053408;28;20349;-70
2023/01/10 11:48:33;;;;;;;;;;;23.30;94.20;;;;;;5053185;28;20308;-71
2023/01/10 11:50:59;;;;;;;;;;;23.30;94.20;;;;;;5053658;28;19909;-70
2023/01/10 11:53:35;;;;;;;;;;;23.20;93.90;;;;;;5053425;28;19913;-71
2023/01/10 11:56:02;;;;;;;;;;;23.20;93.90;;;;;;5053428;28;20361;-71
2023/01/10 11:58:30;;;;;;;;;;;23.20;93.60;;;;;;5053288;28;19915;-71
2023/01/10 12:00:56;;;;;;;;;;;23.20;93.50;;;;;;5053472;28;19909;-70
2023/01/10 12:03:28;;;;;;;;;;;23.20;93.50;;;;;;5053278;28;20582;-71
2023/01/10 12:05:57;;;;;;;;;;;23.30;93.60;;;;;;5055730;28;19916;-72
2023/01/10 12:08:26;;;;;;;;;;;23.30;93.70;;;;;;5052943;28;20045;-71
2023/01/10 12:11:00;;;;;;;;;;;23.30;93.60;;;;;;5053353;28;19940;-71
2023/01/10 12:13:29;;;;;;;;;;;23.40;93.80;;;;;;5053203;28;20427;-70
2023/01/10 12:16:13;;;;;;;;;;;23.40;93.90;;;;;;5053317;28;20353;-71
2023/01/10 12:18:40;;;;;;;;;;;23.40;93.80;;;;;;5052837;28;19955;-71
2023/01/10 12:21:07;;;;;;;;;;;23.40;93.90;;;;;;5052953;28;19916;-70
2023/01/10 12:23:39;;;;;;;;;;;23.40;94.20;;;;;;5052852;28;20269;-71
2023/01/10 12:26:06;;;;;;;;;;;23.40;94.30;;;;;;5053306;28;19919;-71
2023/01/10 12:28:33;;;;;;;;;;;23.40;94.30;;;;;;5059399;28;19975;-71
2023/01/10 12:31:01;;;;;;;;;;;23.40;94.20;;;;;;5072360;28;20049;-71
2023/01/10 12:33:29;;;;;;;;;;;23.40;94.00;;;;;;5066573;28;19920;-71
2023/01/10 12:36:02;;;;;;;;;;;23.40;94.00;;;;;;5083937;28;19909;-71
2023/01/10 12:44:21;;;;;;;;;;;23.40;93.80;;;;;;5075981;28;19962;-71
2023/01/10 12:46:54;;;;;;;;;;;23.40;93.80;;;;;;5086449;28;19944;-72
2023/01/10 12:49:21;;;;;;;;;;;23.40;93.90;;;;;;5081282;28;19916;-71
2023/01/10 12:51:49;;;;;;;;;;;23.40;93.90;;;;;;5071982;28;19961;-71
2023/01/10 12:54:18;;;;;;;;;;;23.40;94.00;;;;;;5075063;28;20027;-71
2023/01/10 12:56:46;;;;;;;;;;;23.40;94.10;;;;;;5061220;28;19908;-71
2023/01/10 12:59:48;;;;;;;;;;;23.40;94.20;;;;;;5083268;28;19908;-71
2023/01/10 13:02:17;;;;;;;;;;;23.40;94.30;;;;;;5074732;28;19946;-72
2023/01/10 13:04:48;;;;;;;;;;;23.40;94.60;;;;;;5086747;28;19935;-71
2023/01/10 13:07:15;;;;;;;;;;;23.40;94.60;;;;;;5080682;28;19958;-71
2023/01/10 13:09:42;;;;;;;;;;;23.40;94.60;;;;;;5079073;28;19908;-71
2023/01/10 13:12:16;;;;;;;;;;;23.30;94.60;;;;;;5063139;28;19916;-73
2023/01/10 13:14:58;;;;;;;;;;;23.30;94.70;;;;;;5062632;28;20053;-72
2023/01/10 13:17:24;;;;;;;;;;;23.30;94.90;;;;;;5085968;28;19916;-71
2023/01/10 13:20:09;;;;;;;;;;;23.30;95.00;;;;;;5087267;28;19908;-71
2023/01/10 13:22:36;;;;;;;;;;;23.30;95.00;;;;;;5057911;28;19961;-71
2023/01/10 13:25:03;;;;;;;;;;;23.30;95.10;;;;;;5075970;28;19934;-71
2023/01/10 13:27:34;;;;;;;;;;;23.30;95.00;;;;;;5071760;28;20007;-72
2023/01/10 13:30:01;;;;;;;;;;;23.20;95.00;;;;;;5056000;28;19920;-71
2023/01/10 13:32:33;;;;;;;;;;;23.20;95.10;;;;;;5064062;28;19909;-72
2023/01/10 13:35:13;;;;;;;;;;;23.30;95.60;;;;;;5083295;28;19960;-71
2023/01/10 13:37:41;;;;;;;;;;;23.30;95.40;;;;;;5066168;28;19920;-71
2023/01/10 13:40:09;;;;;;;;;;;23.20;95.40;;;;;;5087760;28;19943;-72
2023/01/10 13:45:30;;;;;;;;;;;23.30;95.60;;;;;;5073725;28;19997;-71
2023/01/10 13:47:59;;;;;;;;;;;23.20;95.90;;;;;;5065821;28;19916;-71
2023/01/10 13:50:32;;;;;;;;;;;23.20;96.00;;;;;;5085696;28;19916;-71
2023/01/10 13:53:06;;;;;;;;;;;23.30;96.20;;;;;;5084587;28;20426;-72
2023/01/10 13:55:52;;;;;;;;;;;23.30;95.90;;;;;;5075653;28;19916;-72
2023/01/10 13:58:20;;;;;;;;;;;23.20;95.90;;;;;;5081252;28;19913;-72
2023/01/10 14:03:38;;;;;;;;;;;23.20;96.10;;;;;;5076029;28;19931;-72
2023/01/10 14:06:11;;;;;;;;;;;23.20;95.90;;;;;;5090883;28;20318;-72
2023/01/10 14:08:39;;;;;;;;;;;23.20;95.80;;;;;;5062857;28;20348;-72
2023/01/10 14:11:06;;;;;;;;;;;23.20;95.70;;;;;;5087039;28;19908;-72
2023/01/10 14:13:33;;;;;;;;;;;23.20;95.70;;;;;;5086590;28;20280;-72
2023/01/10 14:16:00;;;;;;;;;;;23.20;95.80;;;;;;5079525;28;20322;-72
2023/01/10 14:18:41;;;;;;;;;;;23.30;96.00;;;;;;5090399;28;19909;-72
2023/01/10 14:21:09;;;;;;;;;;;23.20;95.70;;;;;;5081883;28;19909;-71
2023/01/10 14:23:37;;;;;;;;;;;23.30;95.70;;;;;;5080579;28;20300;-72
2023/01/10 14:26:04;;;;;;;;;;;23.30;96.00;;;;;;5084104;28;19915;-72
2023/01/10 14:28:33;;;;;;;;;;;23.20;95.40;;;;;;5091860;28;20306;-71
2023/01/10 14:31:05;;;;;;;;;;;23.20;95.80;;;;;;5081288;28;20025;-71
2023/01/10 14:33:32;;;;;;;;;;;23.30;95.60;;;;;;5082969;28;19923;-72
2023/01/10 14:36:02;;;;;;;;;;;23.20;95.50;;;;;;5077979;28;19916;-70
2023/01/10 14:38:30;;;;;;;;;;;23.20;95.50;;;;;;5062079;28;20374;-73
2023/01/10 14:41:00;;;;;;;;;;;23.20;95.60;;;;;;5087578;28;19920;-72
2023/01/10 14:43:29;;;;;;;;;;;23.10;95.50;;;;;;5084681;28;19912;-72
2023/01/10 14:46:11;;;;;;;;;;;23.20;95.60;;;;;;5079258;28;19908;-72
2023/01/10 14:48:45;;;;;;;;;;;23.20;95.80;;;;;;5061905;28;19915;-73
2023/01/10 14:51:15;;;;;;;;;;;23.20;95.80;;;;;;5085600;28;20444;-72
2023/01/10 14:53:42;;;;;;;;;;;23.20;95.90;;;;;;5072990;28;20095;-72